Time;durP1;ratioP1;P1;durP2;ratioP2;P2;SDS_P1;SDS_P2;PMS_P1;PMS_P2;Temp;Humidity;BMP_temperature;BMP_pressure;BME280_temperature;BME280_humidity;BME280_pressure;Samples;Min_cycle;Max_cycle;Signal;HPM_P1;HPM_P2
2022/05/17 00:01:23;;;;;;;;;;;19.00;99.90;;;;;;4974411;28;19910;-82
2022/05/17 00:03:49;;;;;;;;;;;18.90;99.90;;;;;;4974585;28;19945;-82
2022/05/17 00:06:15;;;;;;;;;;;18.80;99.90;;;;;;4974439;28;19972;-82
2022/05/17 00:08:40;;;;;;;;;;;18.80;99.90;;;;;;4974721;28;20282;-82
2022/05/17 00:11:06;;;;;;;;;;;18.80;99.90;;;;;;4974462;28;19911;-82
2022/05/17 00:13:32;;;;;;;;;;;18.80;99.90;;;;;;4974580;28;19910;-82
2022/05/17 00:15:58;;;;;;;;;;;18.70;99.90;;;;;;4974327;28;19929;-82
2022/05/17 00:18:24;;;;;;;;;;;18.60;99.90;;;;;;4974773;28;20397;-82
2022/05/17 00:20:49;;;;;;;;;;;18.60;99.90;;;;;;4975497;28;19911;-82
2022/05/17 00:23:15;;;;;;;;;;;18.60;99.90;;;;;;4960719;28;19910;-82
2022/05/17 00:25:42;;;;;;;;;;;18.60;99.90;;;;;;4977948;28;19953;-82
2022/05/17 00:28:07;;;;;;;;;;;18.50;99.90;;;;;;4977898;28;19953;-82
2022/05/17 00:30:33;;;;;;;;;;;18.50;99.90;;;;;;4977968;28;19917;-82
2022/05/17 00:32:58;;;;;;;;;;;18.50;99.90;;;;;;4977872;28;19933;-82
2022/05/17 00:35:24;;;;;;;;;;;18.60;99.90;;;;;;4978105;28;19926;-82
2022/05/17 00:37:49;;;;;;;;;;;18.60;99.90;;;;;;4977719;28;19918;-82
2022/05/17 00:40:15;;;;;;;;;;;18.60;99.90;;;;;;4977806;28;19911;-82
2022/05/17 00:42:40;;;;;;;;;;;18.70;99.90;;;;;;4977759;28;19914;-82
2022/05/17 00:45:07;;;;;;;;;;;18.80;99.90;;;;;;4977496;28;20011;-82
2022/05/17 00:47:37;;;;;;;;;;;18.80;99.90;;;;;;4960024;28;19911;-83
2022/05/17 00:50:21;;;;;;;;;;;18.80;99.90;;;;;;4977710;28;19910;-82
2022/05/17 00:52:54;;;;;;;;;;;18.90;99.90;;;;;;4977604;28;19914;-82
2022/05/17 00:55:25;;;;;;;;;;;18.80;99.90;;;;;;4977488;28;19918;-83
2022/05/17 00:57:51;;;;;;;;;;;18.90;99.90;;;;;;4977484;28;19969;-83
2022/05/17 01:00:19;;;;;;;;;;;18.90;99.90;;;;;;4977323;28;20355;-83
2022/05/17 01:02:50;;;;;;;;;;;18.90;99.90;;;;;;4977396;28;19910;-83
2022/05/17 01:05:16;;;;;;;;;;;18.90;99.90;;;;;;4977060;28;19910;-82
2022/05/17 01:07:43;;;;;;;;;;;18.90;99.90;;;;;;4977142;28;19917;-82
2022/05/17 01:10:09;;;;;;;;;;;18.90;99.90;;;;;;4977144;28;19916;-82
2022/05/17 01:12:35;;;;;;;;;;;18.90;99.90;;;;;;4977133;28;19914;-82
2022/05/17 01:15:01;;;;;;;;;;;18.90;99.90;;;;;;4976948;28;19922;-82
2022/05/17 01:17:28;;;;;;;;;;;18.90;99.90;;;;;;4977201;28;19937;-82
2022/05/17 01:19:54;;;;;;;;;;;19.00;99.90;;;;;;4977004;28;19918;-82
2022/05/17 01:22:20;;;;;;;;;;;19.00;99.90;;;;;;4977058;28;20354;-82
2022/05/17 01:24:45;;;;;;;;;;;19.00;99.90;;;;;;4976880;28;19910;-82
2022/05/17 01:27:19;;;;;;;;;;;19.10;99.90;;;;;;4976697;28;19965;-82
2022/05/17 01:29:46;;;;;;;;;;;19.10;99.90;;;;;;4976838;28;20294;-82
2022/05/17 01:32:12;;;;;;;;;;;19.10;99.90;;;;;;4976366;28;19914;-82
2022/05/17 01:34:38;;;;;;;;;;;19.10;99.90;;;;;;4976882;28;20366;-82
2022/05/17 01:37:04;;;;;;;;;;;19.10;99.90;;;;;;4976777;28;20400;-82
2022/05/17 01:39:30;;;;;;;;;;;19.10;99.90;;;;;;4976807;28;20272;-82
2022/05/17 01:41:56;;;;;;;;;;;19.10;99.90;;;;;;4976618;28;19917;-82
2022/05/17 01:44:23;;;;;;;;;;;19.10;99.90;;;;;;4976510;28;20398;-82
2022/05/17 01:46:48;;;;;;;;;;;19.10;99.90;;;;;;4976430;28;19910;-82
2022/05/17 01:49:14;;;;;;;;;;;19.10;99.90;;;;;;4976456;28;19957;-82
2022/05/17 01:51:39;;;;;;;;;;;19.10;99.90;;;;;;4976342;28;20366;-83
2022/05/17 01:54:05;;;;;;;;;;;19.10;99.90;;;;;;4976245;28;20020;-82
2022/05/17 01:56:30;;;;;;;;;;;19.10;99.90;;;;;;4976396;28;20014;-82
2022/05/17 01:58:56;;;;;;;;;;;19.10;99.90;;;;;;4976519;28;19962;-82
2022/05/17 02:01:21;;;;;;;;;;;19.10;99.90;;;;;;4976449;28;19910;-82
2022/05/17 02:03:47;;;;;;;;;;;19.10;99.90;;;;;;4976167;28;20013;-83
2022/05/17 02:06:12;;;;;;;;;;;19.10;99.90;;;;;;4975835;28;20386;-82
2022/05/17 02:08:38;;;;;;;;;;;19.10;99.90;;;;;;4975994;28;19915;-82
2022/05/17 02:11:04;;;;;;;;;;;19.10;99.90;;;;;;4976345;28;20293;-82
2022/05/17 02:13:29;;;;;;;;;;;19.10;99.90;;;;;;4975963;28;19910;-82
2022/05/17 02:15:55;;;;;;;;;;;19.00;99.90;;;;;;4975862;28;20300;-82
2022/05/17 02:18:20;;;;;;;;;;;19.00;99.90;;;;;;4975977;28;19910;-82
2022/05/17 02:20:46;;;;;;;;;;;19.00;99.90;;;;;;4976146;28;19980;-82
2022/05/17 02:23:12;;;;;;;;;;;19.00;99.90;;;;;;4974493;28;19916;-82
2022/05/17 02:25:37;;;;;;;;;;;18.90;99.90;;;;;;4975900;28;20366;-82
2022/05/17 02:28:03;;;;;;;;;;;18.90;99.90;;;;;;4975661;28;20004;-82
2022/05/17 02:30:29;;;;;;;;;;;18.90;99.90;;;;;;4975726;28;19917;-82
2022/05/17 02:32:55;;;;;;;;;;;18.90;99.90;;;;;;4975555;28;19910;-82
2022/05/17 02:35:20;;;;;;;;;;;18.90;99.90;;;;;;4975672;28;19918;-82
2022/05/17 02:37:46;;;;;;;;;;;18.80;99.90;;;;;;4975569;28;19946;-82
2022/05/17 02:40:11;;;;;;;;;;;18.80;99.90;;;;;;4976069;28;19910;-82
2022/05/17 02:42:37;;;;;;;;;;;18.70;99.90;;;;;;4975521;28;19914;-82
2022/05/17 02:45:03;;;;;;;;;;;18.70;99.90;;;;;;4974519;28;19917;-82
2022/05/17 02:47:29;;;;;;;;;;;18.70;99.90;;;;;;4975418;28;20366;-82
2022/05/17 02:49:54;;;;;;;;;;;18.70;99.90;;;;;;4975259;28;19911;-81
2022/05/17 02:52:20;;;;;;;;;;;18.70;99.90;;;;;;4975561;28;20023;-82
2022/05/17 02:54:45;;;;;;;;;;;18.60;99.90;;;;;;4975249;28;19918;-83
2022/05/17 02:57:11;;;;;;;;;;;18.60;99.90;;;;;;4974101;28;19996;-82
2022/05/17 02:59:37;;;;;;;;;;;18.60;99.90;;;;;;4973993;28;19997;-82
2022/05/17 03:02:02;;;;;;;;;;;18.60;99.90;;;;;;4975223;28;19910;-82
2022/05/17 03:04:28;;;;;;;;;;;18.60;99.90;;;;;;4975186;28;19916;-83
2022/05/17 03:06:54;;;;;;;;;;;18.50;99.90;;;;;;4957689;28;19910;-82
2022/05/17 03:09:20;;;;;;;;;;;18.50;99.90;;;;;;4974975;28;19937;-82
2022/05/17 03:11:45;;;;;;;;;;;18.50;99.90;;;;;;4975401;28;19956;-82
2022/05/17 03:14:12;;;;;;;;;;;18.50;99.90;;;;;;4957772;28;19918;-82
2022/05/17 03:16:38;;;;;;;;;;;18.50;99.90;;;;;;4974792;28;20320;-82
2022/05/17 03:19:04;;;;;;;;;;;18.40;99.90;;;;;;4975098;28;20001;-82
2022/05/17 03:21:29;;;;;;;;;;;18.40;99.90;;;;;;4975063;28;20397;-82
2022/05/17 03:23:55;;;;;;;;;;;18.50;99.90;;;;;;4974909;28;19911;-82
2022/05/17 03:26:20;;;;;;;;;;;18.40;99.90;;;;;;4975000;28;19917;-82
2022/05/17 03:28:46;;;;;;;;;;;18.40;99.90;;;;;;4973453;28;19918;-82
2022/05/17 03:31:12;;;;;;;;;;;18.40;99.90;;;;;;4974733;28;19910;-82
2022/05/17 03:33:37;;;;;;;;;;;18.40;99.90;;;;;;4974695;28;19918;-82
2022/05/17 03:36:04;;;;;;;;;;;18.40;99.90;;;;;;4974919;28;19983;-82
2022/05/17 03:38:29;;;;;;;;;;;18.40;99.90;;;;;;4975058;28;19963;-82
2022/05/17 03:40:58;;;;;;;;;;;18.40;99.90;;;;;;4974810;28;19914;-82
2022/05/17 03:43:24;;;;;;;;;;;18.40;99.90;;;;;;4975140;28;19914;-82
2022/05/17 03:45:50;;;;;;;;;;;18.40;99.90;;;;;;4974673;28;19942;-81
2022/05/17 03:48:15;;;;;;;;;;;18.40;99.90;;;;;;4974604;28;19925;-82
2022/05/17 03:50:42;;;;;;;;;;;18.40;99.90;;;;;;4957348;28;19911;-82
2022/05/17 03:53:08;;;;;;;;;;;18.40;99.90;;;;;;4974490;28;20366;-82
2022/05/17 03:55:33;;;;;;;;;;;18.40;99.90;;;;;;4975326;28;20001;-82
2022/05/17 03:57:59;;;;;;;;;;;18.30;99.90;;;;;;4978571;28;19956;-82
2022/05/17 04:00:24;;;;;;;;;;;18.30;99.90;;;;;;4977245;28;20361;-82
2022/05/17 04:02:50;;;;;;;;;;;18.30;99.90;;;;;;4978532;28;19917;-82
2022/05/17 04:05:16;;;;;;;;;;;18.30;99.90;;;;;;4977132;28;19910;-83
2022/05/17 04:07:42;;;;;;;;;;;18.30;99.90;;;;;;4978414;28;19910;-82
2022/05/17 04:10:09;;;;;;;;;;;18.40;99.90;;;;;;4960797;28;20270;-82
2022/05/17 04:12:34;;;;;;;;;;;18.40;99.90;;;;;;4978142;28;19917;-82
2022/05/17 04:15:00;;;;;;;;;;;18.30;99.90;;;;;;4977770;28;19922;-82
2022/05/17 04:17:25;;;;;;;;;;;18.30;99.90;;;;;;4978101;28;20424;-82
2022/05/17 04:19:51;;;;;;;;;;;18.30;99.90;;;;;;4978601;28;19911;-82
2022/05/17 04:22:16;;;;;;;;;;;18.30;99.90;;;;;;4978154;28;19917;-82
2022/05/17 04:24:42;;;;;;;;;;;18.30;99.90;;;;;;4978101;28;19910;-82
2022/05/17 04:27:12;;;;;;;;;;;18.20;99.90;;;;;;4978035;28;19910;-82
2022/05/17 04:29:38;;;;;;;;;;;18.20;99.90;;;;;;4978268;28;19914;-82
2022/05/17 04:32:03;;;;;;;;;;;18.10;99.90;;;;;;4977805;28;20396;-82
2022/05/17 04:34:30;;;;;;;;;;;18.10;99.90;;;;;;4977686;28;19919;-82
2022/05/17 04:36:56;;;;;;;;;;;18.00;99.90;;;;;;4977702;28;19910;-82
2022/05/17 04:39:24;;;;;;;;;;;18.00;99.90;;;;;;4977820;28;19917;-83
2022/05/17 04:41:49;;;;;;;;;;;18.10;99.90;;;;;;4977997;28;19910;-82
2022/05/17 04:44:15;;;;;;;;;;;18.00;99.90;;;;;;4977860;28;19917;-82
2022/05/17 04:46:40;;;;;;;;;;;18.10;99.90;;;;;;4977833;28;19910;-82
2022/05/17 04:49:07;;;;;;;;;;;18.10;99.90;;;;;;4977811;28;19910;-82
2022/05/17 04:51:33;;;;;;;;;;;18.20;99.90;;;;;;4977463;28;20396;-82
2022/05/17 04:54:00;;;;;;;;;;;18.20;99.90;;;;;;4977312;28;19918;-82
2022/05/17 04:56:25;;;;;;;;;;;18.30;99.90;;;;;;4977470;28;19992;-82
2022/05/17 04:58:51;;;;;;;;;;;18.30;99.90;;;;;;4977537;28;19989;-82
2022/05/17 05:01:17;;;;;;;;;;;18.30;99.90;;;;;;4977389;28;19918;-81
2022/05/17 05:03:42;;;;;;;;;;;18.30;99.90;;;;;;4977272;28;20370;-82
2022/05/17 05:06:08;;;;;;;;;;;18.40;99.90;;;;;;4959970;28;19917;-82
2022/05/17 05:08:33;;;;;;;;;;;18.40;99.90;;;;;;4974962;28;20370;-82
2022/05/17 05:10:59;;;;;;;;;;;18.40;99.90;;;;;;4977145;28;20262;-82
2022/05/17 05:13:25;;;;;;;;;;;18.40;99.90;;;;;;4977085;28;20009;-82
2022/05/17 05:15:51;;;;;;;;;;;18.40;99.90;;;;;;4975393;28;19929;-82
2022/05/17 05:18:17;;;;;;;;;;;18.50;99.90;;;;;;4977186;28;20281;-82
2022/05/17 05:20:43;;;;;;;;;;;18.50;99.90;;;;;;4975754;28;19910;-82
2022/05/17 05:23:09;;;;;;;;;;;18.60;99.90;;;;;;4977249;28;19938;-82
2022/05/17 05:25:38;;;;;;;;;;;18.60;99.90;;;;;;4976886;28;20413;-82
2022/05/17 05:28:05;;;;;;;;;;;18.70;99.90;;;;;;4976796;28;20004;-82
2022/05/17 05:30:31;;;;;;;;;;;18.70;99.90;;;;;;4976695;28;19910;-82
2022/05/17 05:32:57;;;;;;;;;;;18.80;99.90;;;;;;4976640;28;20321;-82
2022/05/17 05:35:24;;;;;;;;;;;18.80;99.90;;;;;;4976563;28;19925;-82
2022/05/17 05:37:50;;;;;;;;;;;18.90;99.90;;;;;;4976551;28;19911;-82
2022/05/17 05:40:16;;;;;;;;;;;18.90;99.90;;;;;;4976670;28;20358;-82
2022/05/17 05:42:42;;;;;;;;;;;19.00;99.90;;;;;;4976676;28;19910;-82
2022/05/17 05:45:08;;;;;;;;;;;19.00;99.90;;;;;;4976835;28;20001;-82
2022/05/17 05:47:34;;;;;;;;;;;19.00;99.90;;;;;;4976660;28;19910;-82
2022/05/17 05:50:00;;;;;;;;;;;19.10;99.90;;;;;;4976424;28;19911;-82
2022/05/17 05:52:25;;;;;;;;;;;19.10;99.90;;;;;;4976363;28;19910;-82
2022/05/17 05:54:51;;;;;;;;;;;19.20;99.90;;;;;;4976090;28;20012;-82
2022/05/17 05:57:16;;;;;;;;;;;19.30;99.90;;;;;;4976323;28;20008;-81
2022/05/17 05:59:42;;;;;;;;;;;19.30;99.90;;;;;;4976410;28;20390;-82
2022/05/17 06:02:08;;;;;;;;;;;19.30;99.90;;;;;;4976280;28;19910;-82
2022/05/17 06:04:34;;;;;;;;;;;19.40;99.90;;;;;;4976302;28;19910;-82
2022/05/17 06:06:59;;;;;;;;;;;19.50;99.90;;;;;;4958845;28;19949;-82
2022/05/17 06:09:25;;;;;;;;;;;19.50;99.90;;;;;;4959077;28;19961;-82
2022/05/17 06:11:51;;;;;;;;;;;19.60;99.90;;;;;;4976039;28;19980;-82
2022/05/17 06:14:17;;;;;;;;;;;19.70;99.90;;;;;;4974457;28;20342;-82
2022/05/17 06:16:42;;;;;;;;;;;19.80;99.90;;;;;;4956698;28;19922;-82
2022/05/17 06:19:08;;;;;;;;;;;19.80;99.90;;;;;;4956653;28;20283;-82
2022/05/17 06:21:34;;;;;;;;;;;19.80;99.90;;;;;;4956568;28;20386;-82
2022/05/17 06:23:59;;;;;;;;;;;19.80;99.90;;;;;;4956704;29;19911;-82
2022/05/17 06:26:25;;;;;;;;;;;19.90;99.90;;;;;;4956600;28;19914;-82
2022/05/17 06:28:50;;;;;;;;;;;19.90;99.90;;;;;;4956525;28;19957;-82
2022/05/17 06:31:16;;;;;;;;;;;20.00;99.90;;;;;;4956409;29;19917;-82
2022/05/17 06:33:41;;;;;;;;;;;20.00;99.90;;;;;;4956295;29;20319;-82
2022/05/17 06:36:07;;;;;;;;;;;20.10;99.90;;;;;;4954845;28;20283;-82
2022/05/17 06:38:34;;;;;;;;;;;20.20;99.90;;;;;;4956417;28;19985;-83
2022/05/17 06:40:59;;;;;;;;;;;20.20;99.90;;;;;;4956402;28;19917;-82
2022/05/17 06:43:26;;;;;;;;;;;20.20;99.90;;;;;;4956282;28;19910;-82
2022/05/17 06:45:52;;;;;;;;;;;20.30;99.90;;;;;;4956288;28;19918;-82
2022/05/17 06:48:19;;;;;;;;;;;20.40;99.90;;;;;;4956343;28;19911;-82
2022/05/17 06:50:44;;;;;;;;;;;20.50;99.90;;;;;;4956112;28;20394;-82
2022/05/17 06:53:10;;;;;;;;;;;20.50;99.90;;;;;;4955987;29;19918;-82
2022/05/17 06:55:37;;;;;;;;;;;20.60;99.90;;;;;;4955887;28;19919;-82
2022/05/17 06:58:03;;;;;;;;;;;20.70;99.90;;;;;;4955822;28;19911;-82
2022/05/17 07:00:28;;;;;;;;;;;20.80;99.90;;;;;;4955815;29;19933;-82
2022/05/17 07:02:54;;;;;;;;;;;20.90;99.90;;;;;;4955882;28;20283;-82
2022/05/17 07:05:19;;;;;;;;;;;21.10;99.90;;;;;;4954850;28;19917;-83
2022/05/17 07:07:45;;;;;;;;;;;21.30;99.90;;;;;;4956048;28;19983;-82
2022/05/17 07:13:08;;;;;;;;;;;21.70;99.90;;;;;;4956033;28;20008;-82
2022/05/17 07:15:33;;;;;;;;;;;21.80;99.90;;;;;;4965668;28;19922;-82
2022/05/17 07:18:00;;;;;;;;;;;21.90;99.90;;;;;;4974893;28;19938;-82
2022/05/17 07:20:26;;;;;;;;;;;22.00;99.90;;;;;;4974837;28;19929;-82
2022/05/17 07:22:52;;;;;;;;;;;22.00;99.90;;;;;;4957617;28;19911;-82
2022/05/17 07:25:17;;;;;;;;;;;22.10;99.90;;;;;;4975228;28;19932;-82
2022/05/17 07:27:43;;;;;;;;;;;22.10;99.90;;;;;;4975037;28;19914;-83
2022/05/17 07:30:09;;;;;;;;;;;22.20;99.90;;;;;;4974507;28;19917;-82
2022/05/17 07:32:34;;;;;;;;;;;22.30;99.90;;;;;;4975177;28;19911;-82
2022/05/17 07:35:00;;;;;;;;;;;22.50;99.90;;;;;;4974878;28;20348;-82
2022/05/17 07:37:25;;;;;;;;;;;22.70;99.90;;;;;;4973470;28;20267;-83
2022/05/17 07:39:51;;;;;;;;;;;22.90;99.90;;;;;;4975056;28;19910;-82
2022/05/17 07:42:16;;;;;;;;;;;23.10;99.90;;;;;;4974904;28;20330;-82
2022/05/17 07:44:42;;;;;;;;;;;23.20;99.90;;;;;;4974842;28;19997;-82
2022/05/17 07:47:07;;;;;;;;;;;23.40;99.90;;;;;;4975209;28;20000;-82
2022/05/17 07:49:33;;;;;;;;;;;23.50;99.90;;;;;;4974813;28;20390;-83
2022/05/17 07:51:59;;;;;;;;;;;23.60;99.90;;;;;;4974919;28;19914;-82
2022/05/17 07:54:25;;;;;;;;;;;23.80;99.90;;;;;;4974688;28;19922;-82
2022/05/17 07:56:50;;;;;;;;;;;24.00;99.90;;;;;;4974631;28;19981;-82
2022/05/17 07:59:16;;;;;;;;;;;24.20;99.90;;;;;;4974879;28;19910;-83
2022/05/17 08:01:41;;;;;;;;;;;24.40;99.90;;;;;;4974590;28;19992;-83
2022/05/17 08:04:07;;;;;;;;;;;24.50;99.90;;;;;;4973309;28;19917;-82
2022/05/17 08:06:35;;;;;;;;;;;24.70;99.90;;;;;;4974807;28;19917;-83
2022/05/17 08:09:01;;;;;;;;;;;24.80;99.90;;;;;;4974639;28;20378;-83
2022/05/17 08:11:26;;;;;;;;;;;24.90;99.90;;;;;;4974768;28;19910;-83
2022/05/17 08:13:52;;;;;;;;;;;24.90;99.90;;;;;;4974535;28;19928;-82
2022/05/17 08:16:18;;;;;;;;;;;24.90;99.90;;;;;;4972973;28;20414;-82
2022/05/17 08:18:43;;;;;;;;;;;25.10;99.90;;;;;;4974646;28;19917;-82
2022/05/17 08:21:09;;;;;;;;;;;25.10;99.90;;;;;;4974582;28;19910;-83
2022/05/17 08:23:34;;;;;;;;;;;25.10;99.90;;;;;;4974280;28;20358;-83
2022/05/17 08:28:44;;;;;;;;;;;24.90;99.90;;;;;;4974757;28;19917;-83
2022/05/17 08:31:10;;;;;;;;;;;24.90;99.90;;;;;;4973159;28;20290;-82
2022/05/17 08:33:38;;;;;;;;;;;24.90;99.90;;;;;;4957022;28;19910;-82
2022/05/17 08:36:05;;;;;;;;;;;25.00;99.90;;;;;;4974432;28;20023;-83
2022/05/17 08:38:31;;;;;;;;;;;25.00;99.90;;;;;;4974295;28;20445;-83
2022/05/17 08:41:11;;;;;;;;;;;25.10;99.90;;;;;;4974111;28;19957;-82
2022/05/17 08:43:57;;;;;;;;;;;25.20;99.90;;;;;;4975070;28;19957;-82
2022/05/17 08:46:41;;;;;;;;;;;25.20;99.90;;;;;;4970340;28;19910;-82
2022/05/17 08:49:31;;;;;;;;;;;25.30;99.90;;;;;;4978024;28;19958;-82
2022/05/17 08:52:04;;;;;;;;;;;25.30;99.90;;;;;;4972269;28;19937;-83
2022/05/17 08:54:33;;;;;;;;;;;25.30;99.90;;;;;;4977543;28;19918;-82
2022/05/17 08:57:18;;;;;;;;;;;25.40;99.90;;;;;;4976207;28;19997;-83
2022/05/17 08:59:44;;;;;;;;;;;25.40;99.90;;;;;;4977427;28;19914;-82
2022/05/17 09:02:28;;;;;;;;;;;25.40;99.90;;;;;;4977286;28;20380;-82
2022/05/17 09:04:58;;;;;;;;;;;25.50;99.90;;;;;;4977253;28;19914;-82
2022/05/17 09:07:26;;;;;;;;;;;25.60;99.90;;;;;;4977462;28;19921;-82
2022/05/17 09:09:57;;;;;;;;;;;25.70;99.90;;;;;;4977636;28;20005;-82
2022/05/17 09:12:35;;;;;;;;;;;25.80;99.90;;;;;;4976840;28;20294;-82
2022/05/17 09:15:01;;;;;;;;;;;25.90;99.90;;;;;;4976946;28;19922;-82
2022/05/17 09:17:28;;;;;;;;;;;26.20;99.90;;;;;;4977312;28;19949;-82
2022/05/17 09:19:54;;;;;;;;;;;26.20;99.90;;;;;;4977044;28;20388;-83
2022/05/17 09:22:20;;;;;;;;;;;26.20;99.90;;;;;;4977232;28;19910;-83
2022/05/17 09:24:49;;;;;;;;;;;26.30;99.90;;;;;;4976912;28;19917;-83
2022/05/17 09:27:23;;;;;;;;;;;26.60;99.50;;;;;;4976996;28;19916;-83
2022/05/17 09:29:50;;;;;;;;;;;26.80;99.90;;;;;;4977195;28;19917;-83
2022/05/17 09:32:44;;;;;;;;;;;26.90;99.50;;;;;;4977120;28;19949;-82
2022/05/17 09:35:12;;;;;;;;;;;26.90;99.50;;;;;;4974994;28;19918;-82
2022/05/17 09:37:40;;;;;;;;;;;27.10;99.80;;;;;;4976783;28;19942;-83
2022/05/17 09:40:08;;;;;;;;;;;27.30;99.60;;;;;;4976714;28;20012;-82
2022/05/17 09:42:43;;;;;;;;;;;27.40;99.10;;;;;;4976649;28;19910;-82
2022/05/17 09:45:15;;;;;;;;;;;27.30;98.20;;;;;;4976666;28;20013;-82
2022/05/17 09:47:42;;;;;;;;;;;27.20;98.10;;;;;;4959200;28;19914;-83
2022/05/17 09:52:59;;;;;;;;;;;27.20;98.60;;;;;;4976548;28;20396;-83
2022/05/17 09:55:27;;;;;;;;;;;27.20;99.10;;;;;;4976540;28;19922;-83
2022/05/17 09:58:04;;;;;;;;;;;27.20;98.50;;;;;;4976430;28;19910;-83
2022/05/17 10:00:35;;;;;;;;;;;27.20;99.00;;;;;;4976295;28;19910;-83
2022/05/17 10:03:05;;;;;;;;;;;27.40;99.00;;;;;;4976174;28;19988;-82
2022/05/17 10:05:36;;;;;;;;;;;27.40;98.30;;;;;;4976122;28;20012;-83
2022/05/17 10:08:04;;;;;;;;;;;27.40;98.30;;;;;;4975219;28;20285;-83
2022/05/17 10:10:37;;;;;;;;;;;27.50;98.60;;;;;;4976066;28;19917;-83
2022/05/17 10:13:09;;;;;;;;;;;27.70;97.60;;;;;;4976186;28;19917;-83
2022/05/17 10:15:37;;;;;;;;;;;27.90;97.80;;;;;;4958472;28;20021;-82
2022/05/17 10:18:07;;;;;;;;;;;28.00;97.40;;;;;;4976080;28;20297;-83
2022/05/17 10:20:41;;;;;;;;;;;27.80;97.50;;;;;;4975929;28;19957;-83
2022/05/17 10:23:09;;;;;;;;;;;27.80;97.20;;;;;;4975929;28;19917;-82
2022/05/17 10:25:43;;;;;;;;;;;27.80;97.30;;;;;;4975944;28;19946;-82
2022/05/17 10:28:13;;;;;;;;;;;27.80;97.30;;;;;;4976304;28;19910;-82
2022/05/17 10:30:39;;;;;;;;;;;28.00;97.40;;;;;;4958408;28;19910;-82
2022/05/17 10:33:06;;;;;;;;;;;28.10;97.20;;;;;;4975806;28;20019;-83
2022/05/17 10:35:34;;;;;;;;;;;28.20;97.10;;;;;;4975847;28;19926;-83
2022/05/17 10:38:10;;;;;;;;;;;28.10;97.20;;;;;;4975806;28;20354;-82
2022/05/17 10:40:43;;;;;;;;;;;28.20;97.30;;;;;;4975727;28;19914;-83
2022/05/17 10:43:10;;;;;;;;;;;28.20;97.70;;;;;;4975430;28;19911;-83
2022/05/17 10:45:36;;;;;;;;;;;28.40;97.60;;;;;;4975358;28;19910;-82
2022/05/17 10:48:17;;;;;;;;;;;28.30;98.20;;;;;;4975646;28;20346;-82
2022/05/17 10:51:01;;;;;;;;;;;28.40;97.40;;;;;;4975444;28;19948;-83
2022/05/17 10:53:45;;;;;;;;;;;28.60;96.40;;;;;;4974172;28;20001;-82
2022/05/17 10:56:30;;;;;;;;;;;28.70;96.60;;;;;;4974212;28;19918;-82
2022/05/17 10:59:14;;;;;;;;;;;28.80;96.70;;;;;;4974023;28;19968;-82
2022/05/17 11:01:42;;;;;;;;;;;28.90;96.50;;;;;;4975798;28;19971;-83
2022/05/17 11:04:15;;;;;;;;;;;28.90;96.60;;;;;;4975101;28;19910;-82
2022/05/17 11:06:59;;;;;;;;;;;28.80;96.20;;;;;;4974199;28;19911;-83
2022/05/17 11:09:24;;;;;;;;;;;28.80;97.20;;;;;;4975255;28;19914;-82
2022/05/17 11:12:09;;;;;;;;;;;28.30;97.80;;;;;;4975008;28;19958;-83
2022/05/17 11:14:44;;;;;;;;;;;28.10;98.60;;;;;;4974852;28;19925;-82
2022/05/17 11:17:28;;;;;;;;;;;28.00;98.80;;;;;;4975483;28;19926;-82
2022/05/17 11:20:12;;;;;;;;;;;27.90;99.60;;;;;;4974998;28;19910;-82
2022/05/17 11:22:53;;;;;;;;;;;28.00;99.90;;;;;;4975023;28;19910;-82
2022/05/17 11:25:18;;;;;;;;;;;27.40;99.90;;;;;;4973510;28;19965;-82
2022/05/17 11:27:46;;;;;;;;;;;27.00;99.90;;;;;;4974788;28;19914;-82
2022/05/17 11:30:21;;;;;;;;;;;26.80;99.90;;;;;;4974896;28;20358;-83
2022/05/17 11:33:05;;;;;;;;;;;26.70;99.90;;;;;;4974736;28;19920;-83
2022/05/17 11:35:31;;;;;;;;;;;26.90;99.90;;;;;;4974808;28;19922;-83
2022/05/17 11:37:58;;;;;;;;;;;26.90;99.90;;;;;;4973459;28;20362;-82
2022/05/17 11:40:47;;;;;;;;;;;27.10;99.90;;;;;;4974997;28;20377;-82
2022/05/17 11:45:57;;;;;;;;;;;27.20;99.80;;;;;;4974985;28;20404;-83
2022/05/17 11:48:24;;;;;;;;;;;27.20;99.40;;;;;;4975102;28;19929;-82
2022/05/17 11:50:52;;;;;;;;;;;27.00;99.00;;;;;;4974607;28;19932;-82
2022/05/17 11:53:23;;;;;;;;;;;26.80;99.10;;;;;;4974830;28;19952;-82
2022/05/17 11:56:07;;;;;;;;;;;26.60;99.30;;;;;;4974701;28;19925;-82
2022/05/17 11:58:33;;;;;;;;;;;26.70;99.30;;;;;;4974949;28;19910;-82
2022/05/17 12:00:58;;;;;;;;;;;26.60;99.80;;;;;;4975031;28;19969;-82
2022/05/17 12:03:53;;;;;;;;;;;26.20;99.80;;;;;;4974546;28;20406;-82
2022/05/17 12:06:54;;;;;;;;;;;26.10;99.60;;;;;;4961948;28;19994;-83
2022/05/17 12:09:22;;;;;;;;;;;26.30;99.40;;;;;;4915032;29;19919;-82
2022/05/17 12:12:22;;;;;;;;;;;26.70;98.70;;;;;;4962982;28;19910;-82
2022/05/17 12:15:11;;;;;;;;;;;26.80;98.50;;;;;;4936247;28;19969;-82
2022/05/17 12:17:42;;;;;;;;;;;26.60;98.40;;;;;;4968930;28;20001;-82
2022/05/17 12:20:28;;;;;;;;;;;26.60;98.30;;;;;;4978266;28;19910;-82
2022/05/17 12:23:03;;;;;;;;;;;26.50;98.30;;;;;;4978007;28;19910;-82
2022/05/17 12:25:34;;;;;;;;;;;26.50;98.40;;;;;;4976978;28;20349;-82
2022/05/17 12:28:00;;;;;;;;;;;26.70;98.30;;;;;;4977871;28;20389;-81
2022/05/17 12:33:21;;;;;;;;;;;27.10;98.10;;;;;;4978328;28;19918;-82
2022/05/17 12:35:47;;;;;;;;;;;26.90;97.90;;;;;;4977852;28;20301;-82
2022/05/17 12:44:20;;;;;;;;;;;27.30;97.60;;;;;;4978309;28;19949;-82
2022/05/17 12:46:47;;;;;;;;;;;27.50;97.60;;;;;;4977584;28;20345;-82
2022/05/17 12:49:19;;;;;;;;;;;27.50;98.00;;;;;;4960064;28;20349;-83
2022/05/17 12:51:54;;;;;;;;;;;27.40;98.20;;;;;;4977477;28;19909;-82
2022/05/17 12:54:21;;;;;;;;;;;27.10;98.40;;;;;;4977569;28;19918;-83
2022/05/17 12:56:47;;;;;;;;;;;27.10;98.60;;;;;;4977432;28;20429;-82
2022/05/17 12:59:13;;;;;;;;;;;27.30;98.80;;;;;;4977632;28;19910;-83
2022/05/17 13:01:40;;;;;;;;;;;27.40;98.60;;;;;;4977566;28;20259;-83
2022/05/17 13:04:12;;;;;;;;;;;27.60;98.30;;;;;;4977437;28;19910;-82
2022/05/17 13:06:48;;;;;;;;;;;27.30;98.60;;;;;;4977426;28;20013;-83
2022/05/17 13:09:24;;;;;;;;;;;27.60;98.80;;;;;;4975884;28;19910;-83
2022/05/17 13:11:51;;;;;;;;;;;27.30;99.00;;;;;;4977384;28;19910;-83
2022/05/17 13:14:21;;;;;;;;;;;27.10;98.90;;;;;;4977271;28;19918;-83
2022/05/17 13:16:47;;;;;;;;;;;27.30;99.30;;;;;;4977199;28;19969;-83
2022/05/17 13:19:14;;;;;;;;;;;27.40;99.00;;;;;;4977200;28;19945;-83
2022/05/17 13:21:51;;;;;;;;;;;27.80;98.80;;;;;;4977372;28;19917;-83
2022/05/17 13:24:38;;;;;;;;;;;27.80;98.80;;;;;;4977638;28;20005;-83
2022/05/17 13:27:19;;;;;;;;;;;28.00;98.60;;;;;;4976797;28;19918;-83
2022/05/17 13:29:50;;;;;;;;;;;27.70;99.10;;;;;;4958672;28;19911;-83
2022/05/17 13:32:23;;;;;;;;;;;27.60;99.50;;;;;;4976866;28;19910;-83
2022/05/17 13:35:07;;;;;;;;;;;27.80;99.20;;;;;;4976734;28;20025;-82
2022/05/17 13:37:33;;;;;;;;;;;27.80;99.30;;;;;;4976876;28;19911;-83
2022/05/17 13:40:02;;;;;;;;;;;27.30;99.90;;;;;;4976864;28;19933;-82
2022/05/17 13:42:32;;;;;;;;;;;28.00;99.90;;;;;;4976735;28;20337;-83
2022/05/17 13:45:05;;;;;;;;;;;28.50;99.30;;;;;;4976606;28;20263;-83
2022/05/17 13:47:42;;;;;;;;;;;29.00;99.10;;;;;;4959216;28;20306;-83
2022/05/17 13:50:12;;;;;;;;;;;29.90;98.30;;;;;;4976619;28;19914;-83
2022/05/17 13:52:41;;;;;;;;;;;30.50;97.70;;;;;;4976410;28;19973;-83
2022/05/17 13:55:10;;;;;;;;;;;30.90;97.50;;;;;;4959360;28;19966;-83
2022/05/17 13:57:37;;;;;;;;;;;32.20;96.50;;;;;;4976437;28;19915;-83
2022/05/17 14:00:05;;;;;;;;;;;32.30;96.20;;;;;;4976604;28;19910;-82
2022/05/17 14:02:52;;;;;;;;;;;30.40;98.10;;;;;;4976326;28;20348;-83
2022/05/17 14:05:32;;;;;;;;;;;30.30;98.30;;;;;;4975076;28;19956;-82
2022/05/17 14:13:29;;;;;;;;;;;29.00;99.90;;;;;;4976545;28;20377;-82
2022/05/17 14:15:55;;;;;;;;;;;29.20;99.60;;;;;;4975915;28;19930;-83
2022/05/17 14:18:28;;;;;;;;;;;29.00;99.90;;;;;;4975985;28;19914;-83
2022/05/17 14:20:55;;;;;;;;;;;30.60;98.70;;;;;;4975888;28;19914;-83
2022/05/17 14:23:20;;;;;;;;;;;31.70;97.60;;;;;;4975906;28;19910;-83
2022/05/17 14:25:46;;;;;;;;;;;32.20;97.00;;;;;;4974771;28;19916;-83
2022/05/17 14:28:12;;;;;;;;;;;31.80;96.90;;;;;;4975841;28;19910;-82
2022/05/17 14:30:38;;;;;;;;;;;31.50;97.10;;;;;;4975942;28;20005;-83
2022/05/17 14:33:05;;;;;;;;;;;31.00;97.30;;;;;;4975624;28;20450;-83
2022/05/17 14:35:31;;;;;;;;;;;30.60;97.80;;;;;;4975616;28;19968;-83
2022/05/17 14:37:56;;;;;;;;;;;31.10;97.60;;;;;;4975690;28;19925;-83
2022/05/17 14:40:22;;;;;;;;;;;31.70;96.70;;;;;;4975658;28;19910;-83
2022/05/17 14:42:48;;;;;;;;;;;31.30;97.40;;;;;;4975628;28;19910;-83
2022/05/17 14:45:15;;;;;;;;;;;32.50;96.40;;;;;;4975558;28;19996;-83
2022/05/17 14:47:40;;;;;;;;;;;33.60;95.20;;;;;;4975610;28;19996;-83
2022/05/17 14:50:07;;;;;;;;;;;33.00;95.20;;;;;;4975401;28;19910;-83